Hanamaulu, Hawaii
Current Conditions -  °F | °C
As of 9:53 PM on Thursday 23 Oct 2014 (Local Time) from PHLI Reporting Station
Scattered Clouds Scattered Clouds  
Wind Chill: 78°   Ceiling: Unl
Heat Index: 80°   Visibility: 10mi
Dew Point: 68°   Wind: 17mph
Humidity: 71%   Direction: 70°ENE
Pressure: 30.08"   Gusts: NA
Location:  21.99°N, 159.35°W
Report Text: PHLI 240753Z 07015KT 10SM FEW024 SCT070 26/20 A3008 RMK AO2 RAB05E36 SLP184 P0002 T02560200
Loading
Personal Weather Stations






























Interactive Weather Map
Tropical Storm Tracking
New forecast layout! Learn more

10-Day Weather Forecast

Advertisements
Track Severe Weather on mobile